Time;durP1;ratioP1;P1;durP2;ratioP2;P2;SDS_P1;SDS_P2;PMS_P1;PMS_P2;Temp;Humidity;BMP_temperature;BMP_pressure;BME280_temperature;BME280_humidity;BME280_pressure;Samples;Min_cycle;Max_cycle;Signal;HPM_P1;HPM_P2
2022/04/09 00:01:43;;;;;;;2.78;1.10;;;18.00;54.70;;;;;;6246347;23;20212;-85
2022/04/09 00:04:09;;;;;;;2.70;1.00;;;18.00;54.50;;;;;;6219135;23;20205;-86
2022/04/09 00:06:34;;;;;;;1.98;1.00;;;18.00;54.60;;;;;;6194286;23;20129;-85
2022/04/09 00:09:00;;;;;;;1.65;1.02;;;18.00;54.60;;;;;;6194745;23;20141;-85
2022/04/09 00:11:26;;;;;;;1.63;0.98;;;18.00;54.60;;;;;;6194660;23;20220;-85
2022/04/09 00:13:52;;;;;;;1.85;1.02;;;17.90;54.60;;;;;;6194037;23;20508;-85
2022/04/09 00:16:18;;;;;;;1.48;0.98;;;18.00;54.60;;;;;;6194357;23;20586;-84
2022/04/09 00:18:44;;;;;;;2.88;1.00;;;18.00;54.50;;;;;;6194048;23;20565;-85
2022/04/09 00:21:11;;;;;;;3.45;1.42;;;17.90;54.50;;;;;;6194272;23;20184;-85
2022/04/09 00:23:37;;;;;;;3.40;1.42;;;17.90;54.60;;;;;;6193964;23;20224;-85
2022/04/09 00:26:02;;;;;;;2.45;1.10;;;18.00;54.50;;;;;;6169148;23;20485;-85
2022/04/09 00:28:31;;;;;;;3.63;1.20;;;18.00;54.60;;;;;;6219479;23;20134;-86
2022/04/09 00:31:00;;;;;;;2.05;1.00;;;18.00;54.40;;;;;;6168491;23;20181;-84
2022/04/09 00:33:25;;;;;;;2.50;1.00;;;18.00;54.70;;;;;;6168038;23;20205;-87
2022/04/09 00:35:54;;;;;;;2.83;1.10;;;17.90;54.40;;;;;;6196906;23;20595;-84
2022/04/09 00:38:19;;;;;;;2.58;0.90;;;18.00;54.40;;;;;;6170386;23;20157;-86
2022/04/09 00:40:45;;;;;;;2.28;1.13;;;17.90;54.60;;;;;;6196002;23;20227;-86
2022/04/09 00:43:10;;;;;;;1.73;0.95;;;18.00;54.60;;;;;;6196100;23;20130;-85
2022/04/09 00:45:36;;;;;;;1.70;1.05;;;17.90;54.50;;;;;;6171863;23;20565;-86
2022/04/09 00:48:02;;;;;;;3.03;1.10;;;18.00;54.50;;;;;;6221478;23;20136;-85
2022/04/09 00:50:28;;;;;;;2.15;1.17;;;18.00;54.60;;;;;;6221084;23;20141;-85
2022/04/09 00:52:57;;;;;;;1.83;1.10;;;17.90;55.10;;;;;;6196090;23;20600;-86
2022/04/09 00:56:13;;;;;;;1.20;1.05;;;17.90;54.40;;;;;;6171596;23;20232;-86
2022/04/09 00:58:11;;;;;;;1.52;0.95;;;17.90;54.60;;;;;;6204377;23;20145;-86
2022/04/09 01:00:39;;;;;;;2.30;0.82;;;17.90;54.40;;;;;;6196018;23;20168;-86
2022/04/09 01:03:07;;;;;;;2.00;1.17;;;17.90;54.60;;;;;;6145357;23;20153;-86
2022/04/09 01:05:34;;;;;;;3.55;1.08;;;17.90;54.50;;;;;;6146095;23;20157;-85
2022/04/09 01:08:02;;;;;;;2.20;1.05;;;17.90;54.50;;;;;;6146096;23;20310;-86
2022/04/09 01:10:29;;;;;;;3.35;1.15;;;17.90;54.60;;;;;;6123176;23;20237;-85
2022/04/09 01:12:57;;;;;;;1.55;0.95;;;17.90;54.40;;;;;;6172558;23;20504;-85
2022/04/09 01:15:24;;;;;;;1.60;0.95;;;17.90;55.20;;;;;;6148366;23;20150;-85
2022/04/09 01:17:49;;;;;;;1.60;1.10;;;17.90;54.40;;;;;;6173564;23;20199;-84
2022/04/09 01:20:19;;;;;;;3.75;1.20;;;18.00;54.70;;;;;;6222524;23;20138;-84
2022/04/09 01:22:45;;;;;;;2.00;1.15;;;17.90;54.40;;;;;;6196719;23;20210;-86
2022/04/09 01:25:12;;;;;;;2.10;1.00;;;17.90;54.40;;;;;;6195722;23;20141;-86
2022/04/09 01:27:37;;;;;;;2.25;1.30;;;17.90;54.90;;;;;;6169569;23;20157;-85
2022/04/09 01:30:05;;;;;;;1.48;1.13;;;17.90;54.40;;;;;;6247379;23;20224;-87
2022/04/09 01:32:31;;;;;;;2.35;1.23;;;17.90;54.50;;;;;;6145513;23;20633;-87
2022/04/09 01:35:03;;;;;;;1.80;0.90;;;17.90;54.40;;;;;;6220345;23;20189;-86
2022/04/09 01:37:31;;;;;;;2.35;1.20;;;17.90;54.00;;;;;;6145896;23;20150;-86
2022/04/09 01:39:58;;;;;;;1.67;1.00;;;17.90;54.30;;;;;;6170194;23;20215;-85
2022/04/09 01:42:26;;;;;;;2.38;1.20;;;17.90;54.40;;;;;;6145362;23;20160;-86
2022/04/09 01:44:53;;;;;;;2.08;1.10;;;17.90;54.40;;;;;;6169981;23;20183;-84
2022/04/09 01:47:19;;;;;;;1.83;1.02;;;17.90;54.40;;;;;;6170724;23;20149;-86
2022/04/09 01:49:46;;;;;;;1.90;1.17;;;17.90;54.70;;;;;;6220980;23;20453;-86
2022/04/09 01:52:13;;;;;;;1.65;1.02;;;17.80;55.00;;;;;;6169298;23;20580;-85
2022/04/09 01:54:39;;;;;;;3.17;1.15;;;17.80;54.50;;;;;;6169763;23;20241;-85
2022/04/09 01:57:06;;;;;;;2.72;1.08;;;17.90;54.60;;;;;;6144963;23;20160;-85
2022/04/09 01:59:32;;;;;;;1.75;1.17;;;17.90;54.40;;;;;;6145073;23;20153;-85
2022/04/09 02:01:58;;;;;;;1.77;0.98;;;17.90;54.50;;;;;;6195765;23;20568;-84
2022/04/09 02:04:23;;;;;;;2.10;1.13;;;17.90;54.60;;;;;;6220532;23;20133;-84
2022/04/09 02:06:49;;;;;;;1.65;1.13;;;17.90;54.30;;;;;;6247543;23;20137;-86
2022/04/09 02:09:15;;;;;;;2.75;1.30;;;17.80;54.30;;;;;;6195340;23;20569;-86
2022/04/09 02:11:41;;;;;;;1.60;1.13;;;17.80;54.50;;;;;;6220122;23;20199;-84
2022/04/09 02:14:08;;;;;;;1.77;1.10;;;17.80;54.40;;;;;;6220020;23;20627;-87
2022/04/09 02:16:34;;;;;;;2.15;1.35;;;17.80;54.40;;;;;;6196306;23;20137;-85
2022/04/09 02:19:00;;;;;;;2.88;0.93;;;17.80;54.40;;;;;;6220188;23;20144;-85
2022/04/09 02:21:25;;;;;;;1.13;0.90;;;17.80;54.40;;;;;;6170617;23;20137;-85
2022/04/09 02:23:51;;;;;;;1.67;1.00;;;17.80;54.50;;;;;;6220085;23;20244;-86
2022/04/09 02:26:17;;;;;;;2.17;1.25;;;17.70;54.50;;;;;;6195188;23;20130;-85
2022/04/09 02:28:47;;;;;;;2.72;0.93;;;17.80;54.40;;;;;;6220044;23;20144;-86
2022/04/09 02:31:13;;;;;;;1.60;1.10;;;17.80;54.60;;;;;;6220722;23;20134;-86
2022/04/09 02:33:38;;;;;;;2.67;1.25;;;17.80;54.80;;;;;;6220137;23;20237;-85
2022/04/09 02:36:06;;;;;;;1.77;1.10;;;17.80;54.40;;;;;;6220112;23;20662;-87
2022/04/09 02:38:32;;;;;;;2.80;1.20;;;17.80;54.50;;;;;;6220101;23;20141;-86
2022/04/09 02:40:59;;;;;;;1.95;1.10;;;17.80;54.40;;;;;;6220380;23;20492;-86
2022/04/09 02:43:25;;;;;;;1.90;1.00;;;17.80;54.60;;;;;;6220328;23;20129;-86
2022/04/09 02:45:51;;;;;;;1.33;0.95;;;17.70;54.60;;;;;;6219741;23;20148;-85
2022/04/09 02:48:18;;;;;;;2.15;1.05;;;17.80;54.50;;;;;;6220036;23;20176;-86
2022/04/09 02:50:44;;;;;;;1.85;1.00;;;17.80;54.20;;;;;;6220178;23;20484;-85
2022/04/09 02:53:11;;;;;;;3.10;1.15;;;17.80;54.00;;;;;;6220128;23;20244;-86
2022/04/09 02:55:37;;;;;;;2.58;1.10;;;17.80;54.60;;;;;;6219893;23;20141;-86
2022/04/09 02:58:03;;;;;;;2.60;1.05;;;17.80;54.40;;;;;;6219493;23;20148;-85
2022/04/09 03:00:30;;;;;;;1.35;0.93;;;17.70;54.60;;;;;;6219881;23;20149;-86
2022/04/09 03:02:56;;;;;;;1.20;1.00;;;17.80;54.40;;;;;;6219820;23;20596;-86
2022/04/09 03:05:22;;;;;;;1.15;0.90;;;17.80;54.50;;;;;;6219714;23;20129;-85
2022/04/09 03:07:47;;;;;;;1.83;1.02;;;17.80;54.50;;;;;;6219785;23;20193;-86
2022/04/09 03:10:13;;;;;;;1.10;1.00;;;17.80;54.30;;;;;;6194692;23;20227;-85
2022/04/09 03:12:43;;;;;;;1.13;1.08;;;17.80;54.20;;;;;;6219637;23;20659;-85
2022/04/09 03:15:09;;;;;;;1.90;1.33;;;17.80;54.30;;;;;;6246486;23;20134;-85
2022/04/09 03:17:35;;;;;;;2.25;1.10;;;17.80;54.40;;;;;;6195114;23;20580;-86
2022/04/09 03:20:01;;;;;;;1.67;1.10;;;17.80;54.40;;;;;;6219576;23;20146;-87
2022/04/09 03:22:28;;;;;;;1.30;1.05;;;17.80;54.40;;;;;;6219573;23;20137;-86
2022/04/09 03:24:58;;;;;;;2.30;1.20;;;17.80;54.50;;;;;;6219285;23;20160;-86
2022/04/09 03:27:26;;;;;;;2.83;1.13;;;17.80;54.70;;;;;;6120364;23;20153;-85
2022/04/09 03:29:54;;;;;;;2.10;1.10;;;17.80;54.20;;;;;;6169032;23;20230;-87
2022/04/09 03:32:22;;;;;;;2.45;1.10;;;17.70;54.40;;;;;;6144506;23;20177;-86
2022/04/09 03:34:49;;;;;;;2.85;1.27;;;17.80;54.50;;;;;;6144172;23;20200;-84
2022/04/09 03:37:17;;;;;;;1.75;1.02;;;17.80;54.50;;;;;;6168952;23;20149;-85
2022/04/09 03:39:46;;;;;;;1.10;1.00;;;17.80;54.40;;;;;;6168895;23;20160;-87
2022/04/09 03:42:13;;;;;;;0.80;0.80;;;17.80;54.50;;;;;;6144588;23;20248;-87
2022/04/09 03:44:40;;;;;;;1.35;0.90;;;17.80;55.10;;;;;;6168733;23;20153;-84
2022/04/09 03:47:07;;;;;;;2.30;1.08;;;17.70;54.30;;;;;;6168675;23;20157;-85
2022/04/09 03:49:34;;;;;;;1.92;1.10;;;17.70;54.10;;;;;;6144101;23;20232;-87
2022/04/09 03:52:01;;;;;;;1.60;1.13;;;17.80;54.50;;;;;;6119366;23;20156;-85
2022/04/09 03:54:28;;;;;;;2.10;1.27;;;17.70;54.40;;;;;;6119895;23;20153;-85
2022/04/09 03:56:55;;;;;;;1.83;1.00;;;17.70;54.50;;;;;;6168764;23;20160;-86
2022/04/09 03:59:22;;;;;;;1.63;1.20;;;17.70;54.30;;;;;;6144483;23;20165;-85
2022/04/09 04:01:49;;;;;;;2.88;1.25;;;17.70;54.30;;;;;;6144290;23;20153;-84
2022/04/09 04:04:16;;;;;;;2.15;1.20;;;17.70;54.40;;;;;;6169167;23;20515;-86
2022/04/09 04:06:45;;;;;;;2.78;1.15;;;17.70;54.40;;;;;;6219261;23;20138;-85
2022/04/09 04:09:14;;;;;;;1.23;1.00;;;17.70;54.30;;;;;;6168635;23;20153;-85
2022/04/09 04:11:40;;;;;;;2.45;1.13;;;17.70;54.40;;;;;;6220241;23;20126;-84
2022/04/09 04:14:06;;;;;;;1.52;1.13;;;17.70;54.40;;;;;;6246032;23;20168;-87
2022/04/09 04:16:31;;;;;;;3.13;1.30;;;17.70;54.40;;;;;;6219246;23;20169;-85
2022/04/09 04:18:57;;;;;;;1.73;1.05;;;17.70;54.50;;;;;;6194420;23;20583;-86
2022/04/09 04:21:23;;;;;;;1.25;1.00;;;17.70;54.30;;;;;;6219042;23;20138;-84
2022/04/09 04:23:49;;;;;;;1.70;1.15;;;17.70;54.20;;;;;;6219132;23;20224;-85
2022/04/09 04:26:15;;;;;;;2.25;1.17;;;17.80;53.90;;;;;;6218959;23;20173;-88
2022/04/09 04:28:40;;;;;;;1.23;1.00;;;17.80;54.10;;;;;;6169304;23;20137;-85
2022/04/09 04:31:07;;;;;;;1.48;1.08;;;17.70;54.30;;;;;;6219631;23;20142;-87
2022/04/09 04:33:33;;;;;;;3.28;1.17;;;17.80;54.10;;;;;;6218837;23;20196;-85
2022/04/09 04:35:58;;;;;;;2.45;1.00;;;17.80;54.10;;;;;;6194069;23;20595;-86
2022/04/09 04:38:24;;;;;;;2.25;1.10;;;17.70;54.10;;;;;;6194042;23;20151;-85
2022/04/09 04:40:51;;;;;;;1.48;1.00;;;17.70;54.10;;;;;;6193984;23;20169;-85
2022/04/09 04:43:20;;;;;;;3.05;1.30;;;17.70;54.20;;;;;;6220323;23;20150;-87
2022/04/09 04:45:49;;;;;;;1.10;1.00;;;17.70;54.20;;;;;;6168422;23;20589;-85
2022/04/09 04:48:20;;;;;;;2.28;1.02;;;17.70;53.90;;;;;;6143910;23;20150;-86
2022/04/09 04:50:48;;;;;;;2.05;1.20;;;17.80;54.00;;;;;;6145542;23;20476;-85
2022/04/09 04:53:16;;;;;;;2.53;1.30;;;17.80;53.90;;;;;;6119242;23;20188;-84
2022/04/09 04:55:44;;;;;;;2.97;1.30;;;17.80;53.90;;;;;;6143976;23;20188;-86
2022/04/09 04:58:12;;;;;;;2.10;0.95;;;17.80;54.00;;;;;;6144109;23;20545;-86
2022/04/09 05:00:40;;;;;;;1.95;1.40;;;17.80;53.80;;;;;;6144117;23;20261;-85
2022/04/09 05:03:08;;;;;;;2.00;1.00;;;17.80;53.90;;;;;;6168668;23;20149;-86
2022/04/09 05:05:35;;;;;;;1.88;1.05;;;17.80;53.80;;;;;;6168718;23;20476;-88
2022/04/09 05:08:03;;;;;;;1.48;1.13;;;17.80;53.70;;;;;;6143727;23;20533;-85
2022/04/09 05:10:31;;;;;;;2.13;1.20;;;17.80;53.90;;;;;;6168410;23;20156;-88
2022/04/09 05:12:59;;;;;;;1.92;1.10;;;17.80;53.70;;;;;;6119452;23;20177;-87
2022/04/09 05:15:27;;;;;;;3.08;1.15;;;17.80;53.50;;;;;;6169378;23;20160;-85
2022/04/09 05:17:54;;;;;;;2.28;1.27;;;17.80;53.50;;;;;;6143722;23;20185;-86
2022/04/09 05:20:22;;;;;;;1.20;1.00;;;17.90;53.40;;;;;;6144576;23;20153;-85
2022/04/09 05:22:49;;;;;;;1.75;1.00;;;17.90;53.30;;;;;;6146401;23;20157;-86
2022/04/09 05:25:19;;;;;;;1.10;1.00;;;17.90;53.20;;;;;;6145491;23;20597;-87
2022/04/09 05:27:50;;;;;;;2.85;1.20;;;17.90;53.10;;;;;;6147161;23;20157;-86
2022/04/09 05:30:17;;;;;;;1.05;0.93;;;17.90;53.10;;;;;;6170591;23;20235;-86
2022/04/09 05:32:44;;;;;;;2.10;1.00;;;18.00;53.10;;;;;;6145779;23;20616;-87
2022/04/09 05:35:12;;;;;;;4.32;1.27;;;18.00;53.00;;;;;;6170029;23;20185;-86
2022/04/09 05:37:44;;;;;;;2.25;1.20;;;18.00;52.80;;;;;;6170224;23;20149;-85
2022/04/09 05:40:12;;;;;;;2.17;0.95;;;18.00;53.10;;;;;;6146459;23;20160;-86
2022/04/09 05:42:39;;;;;;;1.20;0.98;;;18.00;52.70;;;;;;6145256;23;20576;-87
2022/04/09 05:45:06;;;;;;;1.40;1.08;;;18.00;52.80;;;;;;6170236;23;20185;-87
2022/04/09 05:47:32;;;;;;;1.15;0.80;;;18.00;52.80;;;;;;6195632;23;20153;-87
2022/04/09 05:49:58;;;;;;;2.13;1.10;;;18.00;52.90;;;;;;6220505;23;20153;-85
2022/04/09 05:52:24;;;;;;;2.00;0.93;;;18.00;52.80;;;;;;6220424;23;20165;-87
2022/04/09 05:54:50;;;;;;;1.17;0.98;;;18.00;52.80;;;;;;6195216;23;20149;-85
2022/04/09 05:57:16;;;;;;;2.22;1.15;;;18.00;52.80;;;;;;6247005;23;20153;-86
2022/04/09 05:59:42;;;;;;;2.63;1.20;;;18.00;52.90;;;;;;6220403;23;20130;-85
2022/04/09 06:02:08;;;;;;;1.60;1.20;;;18.10;52.80;;;;;;6195947;23;20224;-86
2022/04/09 06:04:34;;;;;;;3.13;1.05;;;18.00;52.60;;;;;;6220348;23;20146;-87
2022/04/09 06:07:02;;;;;;;1.58;1.08;;;18.10;52.60;;;;;;6195124;23;20141;-84
2022/04/09 06:09:29;;;;;;;2.33;1.35;;;18.20;52.80;;;;;;6220413;23;20557;-86
2022/04/09 06:11:55;;;;;;;1.70;1.05;;;18.10;53.10;;;;;;6220520;23;20164;-85
2022/04/09 06:14:21;;;;;;;1.48;1.20;;;18.10;53.30;;;;;;6248030;23;20130;-85
2022/04/09 06:16:51;;;;;;;1.13;0.98;;;18.10;53.40;;;;;;6220483;23;20199;-85
2022/04/09 06:19:20;;;;;;;1.60;1.17;;;18.10;53.40;;;;;;6170018;23;20161;-84
2022/04/09 06:21:49;;;;;;;2.20;1.33;;;18.10;53.20;;;;;;6169742;23;20160;-87
2022/04/09 06:24:19;;;;;;;1.30;1.00;;;18.20;53.20;;;;;;6120697;23;20212;-85
2022/04/09 06:26:49;;;;;;;1.33;1.23;;;18.20;53.00;;;;;;6145944;23;20176;-88
2022/04/09 06:29:18;;;;;;;2.28;1.20;;;18.20;52.80;;;;;;6169941;23;20154;-84
2022/04/09 06:31:47;;;;;;;2.33;1.13;;;18.20;52.70;;;;;;6144591;23;20154;-88
2022/04/09 06:34:18;;;;;;;1.83;1.20;;;18.30;52.60;;;;;;6169374;23;20212;-86
2022/04/09 06:36:46;;;;;;;3.63;1.00;;;18.20;52.60;;;;;;6169926;23;20181;-88
2022/04/09 06:39:16;;;;;;;1.60;1.13;;;18.20;52.40;;;;;;6169576;23;20232;-87
2022/04/09 06:41:45;;;;;;;1.33;1.00;;;18.20;52.40;;;;;;6145920;23;20158;-86
2022/04/09 06:44:13;;;;;;;2.25;1.20;;;18.20;52.50;;;;;;6120911;23;20153;-86
2022/04/09 06:46:43;;;;;;;1.38;0.95;;;18.20;52.50;;;;;;6145201;23;20161;-84
2022/04/09 06:49:12;;;;;;;1.42;1.20;;;18.30;52.10;;;;;;6170498;23;20256;-86
2022/04/09 06:51:40;;;;;;;2.70;1.10;;;18.20;52.40;;;;;;6195129;23;20233;-87
2022/04/09 06:54:09;;;;;;;2.05;1.30;;;18.20;52.10;;;;;;6144829;23;20188;-86
2022/04/09 06:56:38;;;;;;;2.05;1.30;;;18.20;52.50;;;;;;6145191;23;20222;-85
2022/04/09 06:59:07;;;;;;;0.93;0.90;;;18.10;52.60;;;;;;6144866;23;20612;-86
2022/04/09 07:01:36;;;;;;;2.30;1.20;;;18.00;52.30;;;;;;6169337;23;20181;-85
2022/04/09 07:04:05;;;;;;;3.22;1.20;;;18.20;52.20;;;;;;6144617;23;20605;-85
2022/04/09 07:06:33;;;;;;;2.60;1.30;;;18.20;52.10;;;;;;6169875;23;20187;-86
2022/04/09 07:09:01;;;;;;;3.15;1.20;;;18.20;52.20;;;;;;6145369;23;20360;-88
2022/04/09 07:11:27;;;;;;;1.33;1.00;;;18.30;52.00;;;;;;6220746;23;20157;-86
2022/04/09 07:13:55;;;;;;;2.05;1.20;;;18.30;51.90;;;;;;6245541;23;20508;-87
2022/04/09 07:16:21;;;;;;;2.13;1.20;;;18.40;51.40;;;;;;6220439;23;20137;-87
2022/04/09 07:18:46;;;;;;;1.35;1.10;;;18.40;52.00;;;;;;6220283;23;20195;-86
2022/04/09 07:21:12;;;;;;;2.05;1.20;;;18.40;51.20;;;;;;6245884;23;20148;-87
2022/04/09 07:23:39;;;;;;;2.25;1.13;;;18.40;51.40;;;;;;6220636;23;20153;-87
2022/04/09 07:26:06;;;;;;;1.45;0.98;;;18.50;51.40;;;;;;6145586;23;20157;-87
2022/04/09 07:28:33;;;;;;;1.55;0.90;;;18.40;51.30;;;;;;6146043;23;20593;-86
2022/04/09 07:30:59;;;;;;;7.70;1.10;;;18.50;50.90;;;;;;6145869;23;20240;-86
2022/04/09 07:33:25;;;;;;;2.20;0.90;;;18.50;51.10;;;;;;6145145;23;20220;-86
2022/04/09 07:35:55;;;;;;;2.42;1.00;;;18.50;50.90;;;;;;6220704;23;20212;-87
2022/04/09 07:38:22;;;;;;;2.97;0.80;;;18.60;50.80;;;;;;6145709;23;20188;-86
2022/04/09 07:40:48;;;;;;;3.47;1.00;;;18.60;50.80;;;;;;6220185;23;20187;-87
2022/04/09 07:43:19;;;;;;;1.02;0.90;;;18.60;50.80;;;;;;6220375;23;20142;-87
2022/04/09 07:45:45;;;;;;;3.35;1.15;;;18.60;50.50;;;;;;6145414;23;20244;-87
2022/04/09 07:48:11;;;;;;;1.15;1.00;;;18.70;50.50;;;;;;6220514;23;20183;-86
2022/04/09 07:50:37;;;;;;;2.22;0.95;;;18.70;50.90;;;;;;6219446;23;20472;-86
2022/04/09 07:53:03;;;;;;;1.42;0.80;;;18.70;50.60;;;;;;6220734;23;20158;-86
2022/04/09 07:55:33;;;;;;;2.45;1.02;;;18.80;50.20;;;;;;6220793;23;20145;-87
2022/04/09 07:58:01;;;;;;;2.10;0.90;;;18.80;50.20;;;;;;6143920;23;20185;-85
2022/04/09 08:00:32;;;;;;;2.58;1.20;;;18.90;50.10;;;;;;6220564;23;20142;-86
2022/04/09 08:03:02;;;;;;;4.28;1.00;;;18.90;50.20;;;;;;6220903;23;20137;-86
2022/04/09 08:05:34;;;;;;;2.58;1.10;;;18.90;50.70;;;;;;6149698;23;20161;-87
2022/04/09 08:08:01;;;;;;;4.47;1.40;;;18.90;51.20;;;;;;6224769;23;20264;-88
2022/04/09 08:10:31;;;;;;;6.22;1.20;;;18.80;50.90;;;;;;6226997;23;20142;-86
2022/04/09 08:12:57;;;;;;;2.00;1.20;;;18.80;51.40;;;;;;6149311;23;20246;-86
2022/04/09 08:15:24;;;;;;;2.83;1.10;;;18.80;50.70;;;;;;6224161;23;20134;-85
2022/04/09 08:17:54;;;;;;;7.85;1.20;;;18.80;50.90;;;;;;6223180;23;20133;-87
2022/04/09 08:20:20;;;;;;;2.15;1.50;;;18.90;50.30;;;;;;6224373;23;20126;-86
2022/04/09 08:22:45;;;;;;;2.83;1.30;;;18.90;50.30;;;;;;6197799;23;20155;-86
2022/04/09 08:25:11;;;;;;;3.97;1.13;;;18.80;49.90;;;;;;6222302;23;20577;-86
2022/04/09 08:27:38;;;;;;;4.80;1.20;;;18.90;50.10;;;;;;6224458;23;20193;-86
2022/04/09 08:30:06;;;;;;;4.13;1.30;;;18.90;50.00;;;;;;6200834;23;20142;-85
2022/04/09 08:32:32;;;;;;;3.25;1.20;;;18.90;50.70;;;;;;6199522;23;20191;-84
2022/04/09 08:35:00;;;;;;;4.07;1.05;;;18.90;50.70;;;;;;6198491;23;20181;-86
2022/04/09 08:37:27;;;;;;;3.33;1.27;;;18.80;50.60;;;;;;6221708;23;20146;-86
2022/04/09 08:39:55;;;;;;;4.20;1.00;;;18.90;51.00;;;;;;6196412;23;20164;-85
2022/04/09 08:42:21;;;;;;;1.90;1.17;;;18.90;50.30;;;;;;6171254;23;20157;-86
2022/04/09 08:44:48;;;;;;;3.00;1.10;;;18.90;50.80;;;;;;6221636;23;20260;-86
2022/04/09 08:47:15;;;;;;;1.95;1.05;;;18.90;50.40;;;;;;6221276;23;20434;-84
2022/04/09 08:49:47;;;;;;;2.65;0.98;;;18.90;50.90;;;;;;6221634;23;20140;-84
2022/04/09 08:52:14;;;;;;;6.68;1.15;;;18.90;50.90;;;;;;6146261;23;20180;-86
2022/04/09 08:54:40;;;;;;;4.25;1.20;;;19.00;51.00;;;;;;6224607;23;20207;-87
2022/04/09 08:57:07;;;;;;;2.53;1.25;;;18.90;51.60;;;;;;6225440;23;20149;-87
2022/04/09 08:59:32;;;;;;;4.45;1.15;;;18.90;51.60;;;;;;6223992;23;20202;-86
2022/04/09 09:01:58;;;;;;;4.82;1.23;;;18.90;52.10;;;;;;6222515;23;20205;-84
2022/04/09 09:04:29;;;;;;;2.70;1.17;;;19.00;52.10;;;;;;6203509;23;20141;-86
2022/04/09 09:07:15;;;;;;;3.83;1.00;;;18.90;52.00;;;;;;6155548;23;20149;-86
2022/04/09 09:09:52;;;;;;;3.05;1.30;;;18.90;51.40;;;;;;6184511;23;20149;-85
2022/04/09 09:12:38;;;;;;;4.03;1.30;;;18.90;50.90;;;;;;6151501;23;20663;-86
2022/04/09 09:15:15;;;;;;;3.33;1.17;;;18.90;52.70;;;;;;6213335;23;20149;-84
2022/04/09 09:17:41;;;;;;;3.63;1.13;;;18.80;52.30;;;;;;6151687;23;20145;-85
2022/04/09 09:20:12;;;;;;;3.80;1.10;;;18.80;53.10;;;;;;6226397;23;20229;-86
2022/04/09 09:22:49;;;;;;;6.07;1.15;;;18.80;53.10;;;;;;6225063;23;20129;-85
2022/04/09 09:25:24;;;;;;;2.10;1.10;;;18.70;53.20;;;;;;6146829;23;20153;-86
2022/04/09 09:28:03;;;;;;;2.85;1.42;;;18.70;53.50;;;;;;6146358;23;20168;-86
2022/04/09 09:30:53;;;;;;;6.10;1.40;;;18.60;51.80;;;;;;6170831;23;20153;-85
2022/04/09 09:33:27;;;;;;;3.25;1.35;;;18.70;52.80;;;;;;6132183;23;20193;-85
2022/04/09 09:36:02;;;;;;;7.88;1.30;;;18.70;52.30;;;;;;6226529;23;20153;-87
2022/04/09 09:38:36;;;;;;;10.38;1.67;;;18.70;52.40;;;;;;6176715;23;20205;-85
2022/04/09 09:41:20;;;;;;;3.20;1.20;;;18.80;51.90;;;;;;6176672;23;20161;-85
2022/04/09 09:44:12;;;;;;;3.72;1.23;;;18.80;52.20;;;;;;6111372;23;20164;-85
2022/04/09 09:46:46;;;;;;;1.63;1.13;;;18.70;51.70;;;;;;6176832;23;20154;-84
2022/04/09 09:49:18;;;;;;;4.47;1.30;;;18.80;51.90;;;;;;6172807;23;20229;-85
2022/04/09 09:52:03;;;;;;;5.25;1.05;;;18.80;51.70;;;;;;6148018;23;20161;-85
2022/04/09 09:54:53;;;;;;;1.90;0.95;;;18.80;51.70;;;;;;6134547;23;20185;-85
2022/04/09 09:57:30;;;;;;;5.07;1.30;;;18.80;51.60;;;;;;6131601;23;20475;-86
2022/04/09 10:00:04;;;;;;;3.70;1.20;;;18.80;52.10;;;;;;6172989;23;20635;-84
2022/04/09 10:02:35;;;;;;;7.25;1.35;;;18.80;52.30;;;;;;6148100;23;20157;-84
2022/04/09 10:05:05;;;;;;;4.63;1.02;;;18.80;51.60;;;;;;6172214;23;20207;-85
2022/04/09 10:07:36;;;;;;;3.35;1.10;;;18.80;51.30;;;;;;6171345;23;20157;-85
2022/04/09 10:10:04;;;;;;;2.67;1.10;;;18.80;51.70;;;;;;6147829;23;20557;-85
2022/04/09 10:12:38;;;;;;;4.72;1.42;;;18.80;51.30;;;;;;6197268;23;20166;-84
2022/04/09 10:15:08;;;;;;;1.83;1.13;;;18.80;52.20;;;;;;6173531;23;20175;-85
2022/04/09 10:17:38;;;;;;;3.17;1.20;;;18.70;53.10;;;;;;6171791;23;20154;-85
2022/04/09 10:20:08;;;;;;;4.78;1.25;;;18.80;53.00;;;;;;6145745;23;20604;-85
2022/04/09 10:22:39;;;;;;;4.85;1.25;;;18.80;52.40;;;;;;6146530;23;20496;-85
2022/04/09 10:25:10;;;;;;;2.63;1.30;;;18.80;52.00;;;;;;6145886;23;20153;-84
2022/04/09 10:27:40;;;;;;;2.63;1.20;;;18.80;52.20;;;;;;6146029;23;20150;-85
2022/04/09 10:30:26;;;;;;;4.75;1.27;;;18.80;52.30;;;;;;6146701;23;20157;-85
2022/04/09 10:32:59;;;;;;;4.05;1.10;;;18.80;53.00;;;;;;6203210;23;20247;-85
2022/04/09 10:35:38;;;;;;;3.88;1.27;;;18.70;53.20;;;;;;6197144;23;20180;-85
2022/04/09 10:38:22;;;;;;;5.32;1.27;;;18.60;52.40;;;;;;6153043;23;20500;-85
2022/04/09 10:41:33;;;;;;;3.60;1.02;;;18.70;52.30;;;;;;6149862;23;20584;-87
2022/04/09 10:44:00;;;;;;;1.05;0.90;;;18.70;52.60;;;;;;6226012;23;20130;-86
2022/04/09 10:46:29;;;;;;;4.07;1.30;;;18.70;51.80;;;;;;6221810;23;20274;-86
2022/04/09 10:49:14;;;;;;;4.95;1.55;;;18.70;52.60;;;;;;6197651;23;20138;-85
2022/04/09 10:52:14;;;;;;;4.38;1.50;;;18.70;53.10;;;;;;6223172;23;20145;-86
2022/04/09 10:55:03;;;;;;;3.70;1.45;;;18.70;52.00;;;;;;6196074;23;20160;-86
2022/04/09 10:57:43;;;;;;;3.10;1.13;;;18.70;52.80;;;;;;6225778;23;20130;-86
2022/04/09 11:00:28;;;;;;;6.00;1.30;;;18.70;52.60;;;;;;6252428;23;20189;-86
2022/04/09 11:03:15;;;;;;;1.55;1.15;;;18.70;52.30;;;;;;6222787;23;20316;-86
2022/04/09 11:05:46;;;;;;;3.08;1.33;;;18.70;52.70;;;;;;6223631;23;20129;-86
2022/04/09 11:08:20;;;;;;;1.35;1.17;;;18.70;52.60;;;;;;6172838;23;20161;-85
2022/04/09 11:10:46;;;;;;;2.60;1.40;;;18.70;52.60;;;;;;6221336;23;20145;-86
2022/04/09 11:13:12;;;;;;;4.25;1.25;;;18.70;53.20;;;;;;6220466;23;20179;-86
2022/04/09 11:15:40;;;;;;;3.22;1.30;;;18.70;52.80;;;;;;6220463;23;20130;-86
2022/04/09 11:18:06;;;;;;;3.47;1.40;;;18.70;52.70;;;;;;6220253;23;20141;-86
2022/04/09 11:20:33;;;;;;;3.67;1.27;;;18.70;52.90;;;;;;6222838;23;20152;-86
2022/04/09 11:23:14;;;;;;;2.45;1.08;;;18.70;53.00;;;;;;6175552;23;20522;-86
2022/04/09 11:25:45;;;;;;;6.00;1.52;;;18.70;52.30;;;;;;6197291;23;20141;-87
2022/04/09 11:28:17;;;;;;;3.95;1.33;;;18.70;53.30;;;;;;6146505;23;20461;-86
2022/04/09 11:30:58;;;;;;;2.97;1.15;;;18.70;52.60;;;;;;6148893;23;20159;-86
2022/04/09 11:33:23;;;;;;;2.22;1.08;;;18.60;52.90;;;;;;6221860;23;20200;-86
2022/04/09 11:35:52;;;;;;;2.25;1.25;;;18.70;52.30;;;;;;6197129;23;20153;-86
2022/04/09 11:38:24;;;;;;;3.00;1.40;;;18.70;52.70;;;;;;6147411;23;20236;-86
2022/04/09 11:40:54;;;;;;;6.70;1.52;;;18.70;53.20;;;;;;6148993;23;20529;-86
2022/04/09 11:43:23;;;;;;;3.00;1.35;;;18.70;53.00;;;;;;6149325;23;20176;-86
2022/04/09 11:45:51;;;;;;;5.07;1.13;;;18.60;53.00;;;;;;6147667;23;20481;-86
2022/04/09 11:48:21;;;;;;;3.35;1.27;;;18.70;53.60;;;;;;6145539;23;20157;-86
2022/04/09 11:50:49;;;;;;;3.05;1.10;;;18.60;52.90;;;;;;6146578;23;20187;-86
2022/04/09 11:53:19;;;;;;;6.55;1.48;;;18.70;52.70;;;;;;6171733;23;20627;-86
2022/04/09 11:55:47;;;;;;;5.03;1.52;;;18.70;53.30;;;;;;6171802;23;20199;-86
2022/04/09 11:58:18;;;;;;;4.68;1.55;;;18.70;54.00;;;;;;6146059;23;20578;-86
2022/04/09 12:00:46;;;;;;;3.35;1.10;;;18.70;52.80;;;;;;6148405;23;20665;-86
2022/04/09 12:03:17;;;;;;;4.00;1.58;;;18.60;52.60;;;;;;6145769;23;20200;-86
2022/04/09 12:05:47;;;;;;;3.53;1.38;;;18.60;53.30;;;;;;6146464;23;20157;-86
2022/04/09 12:08:16;;;;;;;2.40;1.10;;;18.70;52.80;;;;;;6146942;23;20152;-86
2022/04/09 12:11:02;;;;;;;2.53;1.52;;;18.70;53.20;;;;;;6146923;23;20479;-85
2022/04/09 12:13:31;;;;;;;6.10;1.48;;;18.60;53.30;;;;;;6220689;23;20636;-86
2022/04/09 12:16:13;;;;;;;2.83;1.30;;;18.70;53.30;;;;;;6146434;23;20160;-86
2022/04/09 12:18:42;;;;;;;4.10;1.50;;;18.70;52.80;;;;;;6101275;23;20203;-86
2022/04/09 12:21:26;;;;;;;2.25;1.23;;;18.60;52.20;;;;;;6169807;23;20207;-86
2022/04/09 12:24:01;;;;;;;6.40;1.40;;;18.70;52.80;;;;;;6169856;23;20156;-87
2022/04/09 12:26:32;;;;;;;2.83;1.30;;;18.70;52.90;;;;;;6121622;23;20457;-87
2022/04/09 12:29:22;;;;;;;2.42;1.13;;;18.70;52.80;;;;;;6146222;23;20157;-86
2022/04/09 12:32:04;;;;;;;1.80;1.05;;;18.70;52.70;;;;;;6127754;23;20153;-87
2022/04/09 12:34:58;;;;;;;1.58;1.17;;;18.70;52.30;;;;;;6132075;23;20204;-86
2022/04/09 12:37:25;;;;;;;5.97;1.38;;;18.70;52.60;;;;;;6222074;23;20137;-86
2022/04/09 12:39:52;;;;;;;3.55;1.20;;;18.70;53.70;;;;;;6222167;23;20140;-86
2022/04/09 12:42:33;;;;;;;2.13;1.13;;;18.70;53.20;;;;;;6222232;23;20141;-86
2022/04/09 12:45:16;;;;;;;3.28;1.30;;;18.70;54.10;;;;;;6225155;23;20243;-87
2022/04/09 12:47:54;;;;;;;4.55;1.52;;;18.70;54.00;;;;;;6197786;23;20207;-88
2022/04/09 12:50:22;;;;;;;1.90;1.10;;;18.70;53.20;;;;;;6127794;23;20239;-87
2022/04/09 12:52:49;;;;;;;2.60;1.13;;;18.70;52.50;;;;;;6222494;23;20248;-88
2022/04/09 12:55:16;;;;;;;3.60;1.20;;;18.70;52.90;;;;;;6223240;23;20200;-87
2022/04/09 12:57:42;;;;;;;2.80;1.30;;;18.70;53.00;;;;;;6197700;23;20133;-88
2022/04/09 13:00:08;;;;;;;5.22;1.45;;;18.70;52.80;;;;;;6225132;23;20153;-86